sensor_id;sensor_type;location;lat;lon;timestamp;pressure;altitude;pressure_sealevel;temperature;humidity
72892;BME280;61032;50.782;6.818;2022-09-14T00:00:40;99676.81;;;19.42;84.02
72892;BME280;61032;50.782;6.818;2022-09-14T00:01:42;99680.78;;;19.44;83.89
72892;BME280;61032;50.782;6.818;2022-09-14T00:02:46;99675.63;;;19.43;83.67
72892;BME280;61032;50.782;6.818;2022-09-14T00:03:51;99676.81;;;19.42;83.83
72892;BME280;61032;50.782;6.818;2022-09-14T00:04:51;99685.56;;;19.44;83.98
72892;BME280;61032;50.782;6.818;2022-09-14T00:05:51;99678.03;;;19.41;84.04
72892;BME280;61032;50.782;6.818;2022-09-14T00:06:52;99678.81;;;19.41;84.00
72892;BME280;61032;50.782;6.818;2022-09-14T00:07:52;99683.97;;;19.43;84.49
72892;BME280;61032;50.782;6.818;2022-09-14T00:08:53;99676.81;;;19.42;83.84
72892;BME280;61032;50.782;6.818;2022-09-14T00:09:54;99675.22;;;19.41;84.05
72892;BME280;61032;50.782;6.818;2022-09-14T00:10:54;99681.63;;;19.38;84.28
72892;BME280;61032;50.782;6.818;2022-09-14T00:11:55;99680.03;;;19.37;84.42
72892;BME280;61032;50.782;6.818;2022-09-14T00:12:55;99676.03;;;19.38;84.11
72892;BME280;61032;50.782;6.818;2022-09-14T00:13:58;99679.25;;;19.36;84.24
72892;BME280;61032;50.782;6.818;2022-09-14T00:14:58;99677.72;;;19.32;84.52
72892;BME280;61032;50.782;6.818;2022-09-14T00:16:04;99680.09;;;19.30;85.31
72892;BME280;61032;50.782;6.818;2022-09-14T00:17:05;99672.16;;;19.28;85.10
72892;BME280;61032;50.782;6.818;2022-09-14T00:18:06;99673.72;;;19.33;85.24
72892;BME280;61032;50.782;6.818;2022-09-14T00:19:25;99674.53;;;19.30;84.92
72892;BME280;61032;50.782;6.818;2022-09-14T00:20:26;99672.56;;;19.27;85.44
72892;BME280;61032;50.782;6.818;2022-09-14T00:21:27;99667.75;;;19.31;84.72
72892;BME280;61032;50.782;6.818;2022-09-14T00:22:27;99663.72;;;19.35;85.09
72892;BME280;61032;50.782;6.818;2022-09-14T00:23:28;99668.09;;;19.36;84.90
72892;BME280;61032;50.782;6.818;2022-09-14T00:24:28;99661.31;;;19.37;84.93
72892;BME280;61032;50.782;6.818;2022-09-14T00:25:30;99654.53;;;19.38;84.65
72892;BME280;61032;50.782;6.818;2022-09-14T00:26:30;99650.19;;;19.34;84.45
72892;BME280;61032;50.782;6.818;2022-09-14T00:27:31;99657.31;;;19.38;84.59
72892;BME280;61032;50.782;6.818;2022-09-14T00:28:43;99658.91;;;19.39;84.38
72892;BME280;61032;50.782;6.818;2022-09-14T00:29:46;99651.38;;;19.36;84.51
72892;BME280;61032;50.782;6.818;2022-09-14T00:30:47;99651.41;;;19.33;84.44
72892;BME280;61032;50.782;6.818;2022-09-14T00:31:48;99646.59;;;19.33;84.61
72892;BME280;61032;50.782;6.818;2022-09-14T00:32:49;99649.84;;;19.32;84.76
72892;BME280;61032;50.782;6.818;2022-09-14T00:33:51;99641.47;;;19.32;84.67
72892;BME280;61032;50.782;6.818;2022-09-14T00:34:52;99640.69;;;19.31;84.86
72892;BME280;61032;50.782;6.818;2022-09-14T00:35:52;99643.81;;;19.33;84.88
72892;BME280;61032;50.782;6.818;2022-09-14T00:36:52;99635.47;;;19.33;84.99
72892;BME280;61032;50.782;6.818;2022-09-14T00:37:52;99642.66;;;19.31;85.32
72892;BME280;61032;50.782;6.818;2022-09-14T00:38:54;99641.81;;;19.34;85.21
72892;BME280;61032;50.782;6.818;2022-09-14T00:39:55;99638.25;;;19.33;85.18
72892;BME280;61032;50.782;6.818;2022-09-14T00:40:57;99637.50;;;19.29;85.09
72892;BME280;61032;50.782;6.818;2022-09-14T00:41:58;99641.09;;;19.30;84.73
72892;BME280;61032;50.782;6.818;2022-09-14T00:42:58;99638.72;;;19.28;85.20
72892;BME280;61032;50.782;6.818;2022-09-14T00:45:14;99641.09;;;19.30;85.47
72892;BME280;61032;50.782;6.818;2022-09-14T00:46:15;99640.31;;;19.26;85.24
72892;BME280;61032;50.782;6.818;2022-09-14T00:47:16;99637.94;;;19.24;85.03
72892;BME280;61032;50.782;6.818;2022-09-14T00:48:16;99641.50;;;19.25;84.98
72892;BME280;61032;50.782;6.818;2022-09-14T00:49:40;99637.56;;;19.22;84.76
72892;BME280;61032;50.782;6.818;2022-09-14T00:50:39;99642.72;;;19.23;85.08
72892;BME280;61032;50.782;6.818;2022-09-14T00:51:53;99640.72;;;19.24;85.03
72892;BME280;61032;50.782;6.818;2022-09-14T00:52:55;99635.94;;;19.25;85.08
72892;BME280;61032;50.782;6.818;2022-09-14T00:53:56;99624.41;;;19.22;85.38
72892;BME280;61032;50.782;6.818;2022-09-14T00:54:59;99636.72;;;19.25;85.61
72892;BME280;61032;50.782;6.818;2022-09-14T00:56:00;99633.13;;;19.28;85.20
72892;BME280;61032;50.782;6.818;2022-09-14T00:57:01;99634.69;;;19.33;85.21
72892;BME280;61032;50.782;6.818;2022-09-14T00:58:02;99631.94;;;19.29;85.67
72892;BME280;61032;50.782;6.818;2022-09-14T00:59:08;99628.78;;;19.23;86.18
72892;BME280;61032;50.782;6.818;2022-09-14T01:00:12;99628.38;;;19.25;85.80
72892;BME280;61032;50.782;6.818;2022-09-14T01:01:14;99621.97;;;19.28;86.02
72892;BME280;61032;50.782;6.818;2022-09-14T01:02:14;99624.34;;;19.30;85.87
72892;BME280;61032;50.782;6.818;2022-09-14T01:03:15;99617.59;;;19.31;85.89
72892;BME280;61032;50.782;6.818;2022-09-14T01:04:16;99625.94;;;19.31;85.31
72892;BME280;61032;50.782;6.818;2022-09-14T01:05:17;99626.75;;;19.28;86.13
72892;BME280;61032;50.782;6.818;2022-09-14T01:06:42;99612.81;;;19.28;85.99
72892;BME280;61032;50.782;6.818;2022-09-14T01:07:54;99618.00;;;19.26;85.95
72892;BME280;61032;50.782;6.818;2022-09-14T01:09:07;99616.44;;;19.25;85.88
72892;BME280;61032;50.782;6.818;2022-09-14T01:10:32;99620.00;;;19.25;85.06
72892;BME280;61032;50.782;6.818;2022-09-14T01:14:28;99614.06;;;19.19;85.78
72892;BME280;61032;50.782;6.818;2022-09-14T01:17:00;99623.63;;;19.18;85.50
72892;BME280;61032;50.782;6.818;2022-09-14T01:18:09;99611.34;;;19.12;85.02
72892;BME280;61032;50.782;6.818;2022-09-14T01:20:57;99620.13;;;19.11;85.20
72892;BME280;61032;50.782;6.818;2022-09-14T01:22:08;99619.34;;;19.10;85.89
72892;BME280;61032;50.782;6.818;2022-09-14T01:23:17;99622.88;;;19.14;85.95
72892;BME280;61032;50.782;6.818;2022-09-14T01:24:23;99619.66;;;19.16;85.99
72892;BME280;61032;50.782;6.818;2022-09-14T01:27:49;99628.50;;;19.11;85.83
72892;BME280;61032;50.782;6.818;2022-09-14T01:28:58;99632.44;;;19.13;85.97
72892;BME280;61032;50.782;6.818;2022-09-14T01:31:09;99630.44;;;19.14;86.88
72892;BME280;61032;50.782;6.818;2022-09-14T01:33:20;99634.41;;;19.13;86.42
72892;BME280;61032;50.782;6.818;2022-09-14T01:35:26;99636.81;;;19.14;86.37
72892;BME280;61032;50.782;6.818;2022-09-14T01:35:56;99632.06;;;19.11;86.60
72892;BME280;61032;50.782;6.818;2022-09-14T01:37:11;99637.56;;;19.18;86.87
72892;BME280;61032;50.782;6.818;2022-09-14T01:38:19;99633.19;;;19.17;86.84
72892;BME280;61032;50.782;6.818;2022-09-14T01:39:22;99642.75;;;19.16;86.67
72892;BME280;61032;50.782;6.818;2022-09-14T01:40:41;99628.44;;;19.14;86.72
72892;BME280;61032;50.782;6.818;2022-09-14T01:41:44;99626.84;;;19.13;86.46
72892;BME280;61032;50.782;6.818;2022-09-14T01:42:49;99629.22;;;19.15;86.49
72892;BME280;61032;50.782;6.818;2022-09-14T01:43:58;99632.81;;;19.15;86.50
72892;BME280;61032;50.782;6.818;2022-09-14T01:45:02;99626.84;;;19.13;87.14
72892;BME280;61032;50.782;6.818;2022-09-14T01:46:14;99622.47;;;19.16;87.13
72892;BME280;61032;50.782;6.818;2022-09-14T01:47:33;99625.66;;;19.14;86.94
72892;BME280;61032;50.782;6.818;2022-09-14T01:48:42;99622.47;;;19.16;87.13
72892;BME280;61032;50.782;6.818;2022-09-14T01:49:50;99626.84;;;19.17;86.98
72892;BME280;61032;50.782;6.818;2022-09-14T01:50:55;99619.66;;;19.16;87.31
72892;BME280;61032;50.782;6.818;2022-09-14T01:52:02;99626.84;;;19.17;87.01
72892;BME280;61032;50.782;6.818;2022-09-14T01:53:12;99623.63;;;19.18;87.17
72892;BME280;61032;50.782;6.818;2022-09-14T01:55:45;99622.06;;;19.17;87.03
72892;BME280;61032;50.782;6.818;2022-09-14T01:57:08;99624.03;;;19.20;87.07
72892;BME280;61032;50.782;6.818;2022-09-14T01:58:17;99617.25;;;19.21;86.96
72892;BME280;61032;50.782;6.818;2022-09-14T01:59:30;99612.47;;;19.22;87.01
72892;BME280;61032;50.782;6.818;2022-09-14T02:00:31;99603.31;;;19.21;86.81
72892;BME280;61032;50.782;6.818;2022-09-14T02:01:36;99613.25;;;19.22;86.19
72892;BME280;61032;50.782;6.818;2022-09-14T02:02:42;99608.88;;;19.25;86.31
72892;BME280;61032;50.782;6.818;2022-09-14T02:03:48;99604.91;;;19.22;86.66
72892;BME280;61032;50.782;6.818;2022-09-14T02:04:58;99603.69;;;19.23;86.69
72892;BME280;61032;50.782;6.818;2022-09-14T02:06:08;99602.88;;;19.27;86.76
72892;BME280;61032;50.782;6.818;2022-09-14T02:07:10;99601.28;;;19.26;86.11
72892;BME280;61032;50.782;6.818;2022-09-14T02:08:11;99604.91;;;19.22;86.32
72892;BME280;61032;50.782;6.818;2022-09-14T02:09:16;99593.38;;;19.20;86.39
72892;BME280;61032;50.782;6.818;2022-09-14T02:10:17;99590.56;;;19.20;86.55
72892;BME280;61032;50.782;6.818;2022-09-14T02:11:18;99593.38;;;19.20;86.48
72892;BME280;61032;50.782;6.818;2022-09-14T02:12:19;99582.22;;;19.20;86.63
72892;BME280;61032;50.782;6.818;2022-09-14T02:13:19;99586.59;;;19.21;86.62
72892;BME280;61032;50.782;6.818;2022-09-14T02:14:21;99581.41;;;19.20;87.04
72892;BME280;61032;50.782;6.818;2022-09-14T02:15:21;99588.59;;;19.17;87.52
72892;BME280;61032;50.782;6.818;2022-09-14T02:16:22;99585.03;;;19.17;87.50
72892;BME280;61032;50.782;6.818;2022-09-14T02:17:23;99579.03;;;19.18;87.15
72892;BME280;61032;50.782;6.818;2022-09-14T02:18:24;99575.06;;;19.19;87.14
72892;BME280;61032;50.782;6.818;2022-09-14T02:19:25;99573.84;;;19.20;87.70
72892;BME280;61032;50.782;6.818;2022-09-14T02:20:58;99579.03;;;19.22;87.06
72892;BME280;61032;50.782;6.818;2022-09-14T02:21:59;99571.06;;;19.20;86.97
72892;BME280;61032;50.782;6.818;2022-09-14T02:23:00;99568.69;;;19.19;86.78
72892;BME280;61032;50.782;6.818;2022-09-14T02:24:01;99570.28;;;19.20;86.50
72892;BME280;61032;50.782;6.818;2022-09-14T02:25:02;99567.50;;;19.20;86.69
72892;BME280;61032;50.782;6.818;2022-09-14T02:26:03;99570.25;;;19.23;86.57
72892;BME280;61032;50.782;6.818;2022-09-14T02:27:05;99571.44;;;19.22;86.47
72892;BME280;61032;50.782;6.818;2022-09-14T02:28:06;99569.50;;;19.16;86.36
72892;BME280;61032;50.782;6.818;2022-09-14T02:29:07;99568.34;;;19.13;86.90
72892;BME280;61032;50.782;6.818;2022-09-14T02:30:08;99571.88;;;19.17;87.25
72892;BME280;61032;50.782;6.818;2022-09-14T02:31:16;99577.47;;;19.17;86.85
72892;BME280;61032;50.782;6.818;2022-09-14T02:34:07;99567.13;;;19.14;87.28
72892;BME280;61032;50.782;6.818;2022-09-14T02:35:22;99566.72;;;19.16;87.50
72892;BME280;61032;50.782;6.818;2022-09-14T02:39:01;99568.28;;;19.20;86.79
72892;BME280;61032;50.782;6.818;2022-09-14T02:41:46;99552.78;;;19.16;87.02
72892;BME280;61032;50.782;6.818;2022-09-14T02:45:34;99555.19;;;19.14;87.02
72892;BME280;61032;50.782;6.818;2022-09-14T02:50:06;99536.47;;;19.14;86.94
72892;BME280;61032;50.782;6.818;2022-09-14T02:50:51;99536.88;;;19.13;86.95
72892;BME280;61032;50.782;6.818;2022-09-14T02:52:14;99534.47;;;19.15;86.55
72892;BME280;61032;50.782;6.818;2022-09-14T02:55:02;99526.53;;;19.13;87.15
72892;BME280;61032;50.782;6.818;2022-09-14T02:56:06;99522.53;;;19.14;87.09
72892;BME280;61032;50.782;6.818;2022-09-14T02:57:08;99524.13;;;19.15;87.21
72892;BME280;61032;50.782;6.818;2022-09-14T02:58:11;99521.34;;;19.15;87.07
72892;BME280;61032;50.782;6.818;2022-09-14T02:59:12;99515.34;;;19.17;87.21
72892;BME280;61032;50.782;6.818;2022-09-14T03:00:13;99521.34;;;19.15;86.89
72892;BME280;61032;50.782;6.818;2022-09-14T03:01:17;99515.38;;;19.13;86.75
72892;BME280;61032;50.782;6.818;2022-09-14T03:02:17;99514.59;;;19.13;86.34
72892;BME280;61032;50.782;6.818;2022-09-14T03:03:19;99518.97;;;19.14;86.44
72892;BME280;61032;50.782;6.818;2022-09-14T03:04:20;99514.28;;;19.07;86.62
72892;BME280;61032;50.782;6.818;2022-09-14T03:05:20;99513.09;;;19.05;86.69
72892;BME280;61032;50.782;6.818;2022-09-14T03:06:21;99513.91;;;19.02;86.84
72892;BME280;61032;50.782;6.818;2022-09-14T03:07:21;99514.31;;;19.00;86.90
72892;BME280;61032;50.782;6.818;2022-09-14T03:08:23;99513.91;;;19.02;87.13
72892;BME280;61032;50.782;6.818;2022-09-14T03:09:23;99516.66;;;19.05;86.80
72892;BME280;61032;50.782;6.818;2022-09-14T03:10:24;99512.72;;;19.03;87.48
72892;BME280;61032;50.782;6.818;2022-09-14T03:11:24;99517.06;;;19.07;87.36
72892;BME280;61032;50.782;6.818;2022-09-14T03:12:25;99514.66;;;19.09;87.32
72892;BME280;61032;50.782;6.818;2022-09-14T03:13:25;99513.84;;;19.09;86.88
72892;BME280;61032;50.782;6.818;2022-09-14T03:14:25;99511.88;;;19.06;86.17
72892;BME280;61032;50.782;6.818;2022-09-14T03:15:26;99513.09;;;19.05;86.00
72892;BME280;61032;50.782;6.818;2022-09-14T03:16:27;99511.53;;;19.00;86.06
72892;BME280;61032;50.782;6.818;2022-09-14T03:17:27;99513.16;;;18.94;86.11
72892;BME280;61032;50.782;6.818;2022-09-14T03:18:27;99510.00;;;18.92;86.05
72892;BME280;61032;50.782;6.818;2022-09-14T03:19:28;99508.38;;;18.95;86.46
72892;BME280;61032;50.782;6.818;2022-09-14T03:20:30;99507.56;;;18.98;86.13
72892;BME280;61032;50.782;6.818;2022-09-14T03:21:31;99514.72;;;18.99;86.40
72892;BME280;61032;50.782;6.818;2022-09-14T03:22:32;99514.69;;;19.02;86.32
72892;BME280;61032;50.782;6.818;2022-09-14T03:23:37;99517.09;;;19.00;86.44
72892;BME280;61032;50.782;6.818;2022-09-14T03:24:38;99507.53;;;19.01;86.16
72892;BME280;61032;50.782;6.818;2022-09-14T03:25:40;99510.72;;;19.03;86.31
72892;BME280;61032;50.782;6.818;2022-09-14T03:26:41;99509.50;;;19.04;86.00
72892;BME280;61032;50.782;6.818;2022-09-14T03:27:42;99502.75;;;19.05;86.16
72892;BME280;61032;50.782;6.818;2022-09-14T03:28:42;99511.91;;;19.02;86.38
72892;BME280;61032;50.782;6.818;2022-09-14T03:29:43;99508.34;;;19.02;86.33
72892;BME280;61032;50.782;6.818;2022-09-14T03:30:43;99513.13;;;19.01;86.50
72892;BME280;61032;50.782;6.818;2022-09-14T03:31:43;99506.72;;;19.04;86.17
72892;BME280;61032;50.782;6.818;2022-09-14T03:32:44;99506.72;;;19.04;86.18
72892;BME280;61032;50.782;6.818;2022-09-14T03:33:45;99505.53;;;19.05;86.38
72892;BME280;61032;50.782;6.818;2022-09-14T03:34:45;99504.31;;;19.06;86.07
72892;BME280;61032;50.782;6.818;2022-09-14T03:35:46;99507.91;;;19.07;86.25
72892;BME280;61032;50.782;6.818;2022-09-14T03:36:46;99503.97;;;19.01;86.16
72892;BME280;61032;50.782;6.818;2022-09-14T03:37:46;99499.19;;;19.01;86.60
72892;BME280;61032;50.782;6.818;2022-09-14T03:38:49;99504.31;;;19.06;86.49
72892;BME280;61032;50.782;6.818;2022-09-14T03:39:50;99508.31;;;19.05;85.88
72892;BME280;61032;50.782;6.818;2022-09-14T03:40:51;99501.91;;;19.08;85.77
72892;BME280;61032;50.782;6.818;2022-09-14T03:41:52;99505.44;;;19.12;85.56
72892;BME280;61032;50.782;6.818;2022-09-14T03:42:52;99501.88;;;19.12;85.34
72892;BME280;61032;50.782;6.818;2022-09-14T03:43:52;99502.66;;;19.12;85.81
72892;BME280;61032;50.782;6.818;2022-09-14T03:44:53;99502.63;;;19.16;85.91
72892;BME280;61032;50.782;6.818;2022-09-14T03:45:54;99501.44;;;19.13;85.50
72892;BME280;61032;50.782;6.818;2022-09-14T03:46:54;99503.88;;;19.11;85.82
72892;BME280;61032;50.782;6.818;2022-09-14T03:47:54;99507.47;;;19.12;85.91
72892;BME280;61032;50.782;6.818;2022-09-14T03:48:55;99507.50;;;19.08;85.90
72892;BME280;61032;50.782;6.818;2022-09-14T03:49:55;99507.50;;;19.08;86.28
72892;BME280;61032;50.782;6.818;2022-09-14T03:50:59;99502.72;;;19.09;86.44
72892;BME280;61032;50.782;6.818;2022-09-14T03:52:00;99500.34;;;19.07;86.59
72892;BME280;61032;50.782;6.818;2022-09-14T03:53:00;99499.53;;;19.07;86.33
72892;BME280;61032;50.782;6.818;2022-09-14T03:54:01;99505.53;;;19.05;86.39
72892;BME280;61032;50.782;6.818;2022-09-14T03:55:02;99496.75;;;19.07;86.05
72892;BME280;61032;50.782;6.818;2022-09-14T03:56:12;99499.94;;;19.09;86.60
72892;BME280;61032;50.782;6.818;2022-09-14T03:57:14;99505.91;;;19.07;86.39
72892;BME280;61032;50.782;6.818;2022-09-14T03:58:15;99501.91;;;19.08;86.48
72892;BME280;61032;50.782;6.818;2022-09-14T03:59:15;99502.75;;;19.05;86.49
72892;BME280;61032;50.782;6.818;2022-09-14T04:00:15;99504.31;;;19.06;86.21
72892;BME280;61032;50.782;6.818;2022-09-14T04:01:18;99497.97;;;19.06;86.37
72892;BME280;61032;50.782;6.818;2022-09-14T04:02:19;99502.75;;;19.02;86.57
72892;BME280;61032;50.782;6.818;2022-09-14T04:03:20;99501.56;;;19.03;86.75
72892;BME280;61032;50.782;6.818;2022-09-14T04:04:20;99499.56;;;19.03;86.58
72892;BME280;61032;50.782;6.818;2022-09-14T04:05:20;99503.56;;;19.02;86.84
72892;BME280;61032;50.782;6.818;2022-09-14T04:06:21;99498.00;;;19.02;86.76
72892;BME280;61032;50.782;6.818;2022-09-14T04:07:21;99497.19;;;19.02;86.63
72892;BME280;61032;50.782;6.818;2022-09-14T04:08:22;99500.38;;;19.04;86.66
72892;BME280;61032;50.782;6.818;2022-09-14T04:09:23;99495.59;;;19.04;86.91
72892;BME280;61032;50.782;6.818;2022-09-14T04:10:23;99487.59;;;19.06;86.15
72892;BME280;61032;50.782;6.818;2022-09-14T04:11:24;99488.00;;;19.08;86.36
72892;BME280;61032;50.782;6.818;2022-09-14T04:12:25;99487.59;;;19.06;86.22
72892;BME280;61032;50.782;6.818;2022-09-14T04:13:25;99491.59;;;19.05;86.40
72892;BME280;61032;50.782;6.818;2022-09-14T04:14:26;99484.44;;;19.04;86.34
72892;BME280;61032;50.782;6.818;2022-09-14T04:15:26;99486.03;;;19.05;86.16
72892;BME280;61032;50.782;6.818;2022-09-14T04:16:27;99487.59;;;19.06;86.60
72892;BME280;61032;50.782;6.818;2022-09-14T04:17:28;99487.19;;;19.08;86.97
72892;BME280;61032;50.782;6.818;2022-09-14T04:18:28;99488.78;;;19.09;86.91
72892;BME280;61032;50.782;6.818;2022-09-14T04:19:29;99486.41;;;19.07;86.79
72892;BME280;61032;50.782;6.818;2022-09-14T04:20:38;99489.19;;;19.07;86.99
72892;BME280;61032;50.782;6.818;2022-09-14T04:21:39;99484.41;;;19.08;87.32
72892;BME280;61032;50.782;6.818;2022-09-14T04:22:39;99486.41;;;19.07;86.91
72892;BME280;61032;50.782;6.818;2022-09-14T04:23:39;99484.03;;;19.06;86.73
72892;BME280;61032;50.782;6.818;2022-09-14T04:24:40;99482.41;;;19.08;86.70
72892;BME280;61032;50.782;6.818;2022-09-14T04:25:40;99486.81;;;19.06;86.97
72892;BME280;61032;50.782;6.818;2022-09-14T04:26:41;99480.84;;;19.04;87.18
72892;BME280;61032;50.782;6.818;2022-09-14T04:27:42;99482.03;;;19.06;87.03
72892;BME280;61032;50.782;6.818;2022-09-14T04:28:42;99485.63;;;19.07;86.94
72892;BME280;61032;50.782;6.818;2022-09-14T04:29:42;99481.25;;;19.06;86.45
72892;BME280;61032;50.782;6.818;2022-09-14T04:30:43;99483.63;;;19.07;87.05
72892;BME280;61032;50.782;6.818;2022-09-14T04:31:43;99476.47;;;19.06;86.24
72892;BME280;61032;50.782;6.818;2022-09-14T04:32:43;99485.25;;;19.01;86.68
72892;BME280;61032;50.782;6.818;2022-09-14T04:33:44;99480.06;;;19.03;86.53
72892;BME280;61032;50.782;6.818;2022-09-14T04:34:47;99486.03;;;19.05;86.82
72892;BME280;61032;50.782;6.818;2022-09-14T04:36:05;99472.47;;;19.07;87.16
72892;BME280;61032;50.782;6.818;2022-09-14T04:37:07;99480.84;;;19.04;87.13
72892;BME280;61032;50.782;6.818;2022-09-14T04:38:07;99478.06;;;19.04;87.15
72892;BME280;61032;50.782;6.818;2022-09-14T04:39:10;99468.53;;;19.01;86.95
72892;BME280;61032;50.782;6.818;2022-09-14T04:40:12;99478.47;;;19.02;86.74
72892;BME280;61032;50.782;6.818;2022-09-14T04:41:16;99478.06;;;19.04;86.95
72892;BME280;61032;50.782;6.818;2022-09-14T04:42:17;99469.31;;;19.05;87.00
72892;BME280;61032;50.782;6.818;2022-09-14T04:43:17;99475.69;;;19.02;86.52
72892;BME280;61032;50.782;6.818;2022-09-14T04:44:18;99475.72;;;18.99;86.66
72892;BME280;61032;50.782;6.818;2022-09-14T04:45:18;99475.72;;;18.99;86.77
72892;BME280;61032;50.782;6.818;2022-09-14T04:46:20;99472.53;;;19.00;86.93
72892;BME280;61032;50.782;6.818;2022-09-14T04:47:21;99475.72;;;18.99;86.78
72892;BME280;61032;50.782;6.818;2022-09-14T04:48:22;99468.56;;;18.98;87.51
72892;BME280;61032;50.782;6.818;2022-09-14T04:49:22;99470.16;;;18.99;87.59
72892;BME280;61032;50.782;6.818;2022-09-14T04:50:22;99474.53;;;19.00;87.80
72892;BME280;61032;50.782;6.818;2022-09-14T04:51:26;99466.16;;;19.00;87.89
72892;BME280;61032;50.782;6.818;2022-09-14T04:52:27;99472.53;;;19.00;87.88
72892;BME280;61032;50.782;6.818;2022-09-14T04:53:27;99462.19;;;19.01;87.44
72892;BME280;61032;50.782;6.818;2022-09-14T04:54:27;99462.59;;;18.99;87.51
72892;BME280;61032;50.782;6.818;2022-09-14T04:55:28;99460.59;;;19.00;88.02
72892;BME280;61032;50.782;6.818;2022-09-14T04:56:31;99462.19;;;19.01;87.73
72892;BME280;61032;50.782;6.818;2022-09-14T04:57:32;99461.41;;;18.97;87.26
72892;BME280;61032;50.782;6.818;2022-09-14T04:58:33;99459.03;;;18.95;87.82
72892;BME280;61032;50.782;6.818;2022-09-14T04:59:33;99453.09;;;18.93;87.88
72892;BME280;61032;50.782;6.818;2022-09-14T05:00:34;99456.66;;;18.94;88.03
72892;BME280;61032;50.782;6.818;2022-09-14T05:01:38;99461.38;;;19.00;87.54
72892;BME280;61032;50.782;6.818;2022-09-14T05:02:39;99463.00;;;18.98;87.84
72892;BME280;61032;50.782;6.818;2022-09-14T05:03:40;99458.22;;;18.98;88.00
72892;BME280;61032;50.782;6.818;2022-09-14T05:04:40;99459.00;;;18.99;87.98
72892;BME280;61032;50.782;6.818;2022-09-14T05:05:41;99452.66;;;18.98;87.82
72892;BME280;61032;50.782;6.818;2022-09-14T05:06:42;99459.41;;;18.97;87.43
72892;BME280;61032;50.782;6.818;2022-09-14T05:07:43;99456.63;;;18.97;87.44
72892;BME280;61032;50.782;6.818;2022-09-14T05:08:44;99459.03;;;18.95;87.76
72892;BME280;61032;50.782;6.818;2022-09-14T05:09:45;99460.63;;;18.96;87.92
72892;BME280;61032;50.782;6.818;2022-09-14T05:10:45;99461.03;;;18.95;87.74
72892;BME280;61032;50.782;6.818;2022-09-14T05:11:46;99459.41;;;18.97;88.03
72892;BME280;61032;50.782;6.818;2022-09-14T05:12:46;99456.59;;;19.01;88.00
72892;BME280;61032;50.782;6.818;2022-09-14T05:13:46;99456.63;;;18.97;88.14
72892;BME280;61032;50.782;6.818;2022-09-14T05:14:47;99461.38;;;19.00;87.79
72892;BME280;61032;50.782;6.818;2022-09-14T05:15:48;99454.19;;;19.03;87.76
72892;BME280;61032;50.782;6.818;2022-09-14T05:16:48;99461.38;;;19.00;87.37
72892;BME280;61032;50.782;6.818;2022-09-14T05:17:49;99456.59;;;19.01;87.55
72892;BME280;61032;50.782;6.818;2022-09-14T05:18:51;99459.38;;;19.01;87.56
72892;BME280;61032;50.782;6.818;2022-09-14T05:19:52;99454.63;;;19.01;87.73
72892;BME280;61032;50.782;6.818;2022-09-14T05:20:53;99454.19;;;19.03;87.62
72892;BME280;61032;50.782;6.818;2022-09-14T05:21:53;99455.00;;;19.03;87.56
72892;BME280;61032;50.782;6.818;2022-09-14T05:22:53;99460.56;;;19.03;87.88
72892;BME280;61032;50.782;6.818;2022-09-14T05:23:55;99454.22;;;18.99;87.99
72892;BME280;61032;50.782;6.818;2022-09-14T05:24:56;99451.47;;;18.96;87.69
72892;BME280;61032;50.782;6.818;2022-09-14T05:25:57;99451.06;;;18.97;87.77
72892;BME280;61032;50.782;6.818;2022-09-14T05:26:57;99460.97;;;19.02;87.72
72892;BME280;61032;50.782;6.818;2022-09-14T05:27:58;99454.19;;;19.03;87.98
72892;BME280;61032;50.782;6.818;2022-09-14T05:29:00;99457.41;;;19.01;87.75
72892;BME280;61032;50.782;6.818;2022-09-14T05:30:00;99452.63;;;19.02;87.74
72892;BME280;61032;50.782;6.818;2022-09-14T05:31:05;99452.22;;;19.03;87.77
72892;BME280;61032;50.782;6.818;2022-09-14T05:32:06;99452.22;;;19.03;87.76
72892;BME280;61032;50.782;6.818;2022-09-14T05:33:07;99447.44;;;19.04;88.15
72892;BME280;61032;50.782;6.818;2022-09-14T05:34:08;99448.63;;;19.03;88.08
72892;BME280;61032;50.782;6.818;2022-09-14T05:35:09;99447.06;;;18.98;88.27
72892;BME280;61032;50.782;6.818;2022-09-14T05:36:10;99448.28;;;18.97;88.23
72892;BME280;61032;50.782;6.818;2022-09-14T05:37:11;99445.09;;;18.99;88.01
72892;BME280;61032;50.782;6.818;2022-09-14T05:38:11;99451.44;;;18.99;88.11
72892;BME280;61032;50.782;6.818;2022-09-14T05:39:12;99458.59;;;19.00;88.08
72892;BME280;61032;50.782;6.818;2022-09-14T05:40:12;99445.88;;;18.99;88.00
72892;BME280;61032;50.782;6.818;2022-09-14T05:41:14;99447.84;;;19.02;87.89
72892;BME280;61032;50.782;6.818;2022-09-14T05:42:14;99447.00;;;19.05;87.89
72892;BME280;61032;50.782;6.818;2022-09-14T05:43:15;99452.63;;;19.02;87.82
72892;BME280;61032;50.782;6.818;2022-09-14T05:44:16;99446.25;;;19.01;87.90
72892;BME280;61032;50.782;6.818;2022-09-14T05:45:16;99451.03;;;19.01;87.76
72892;BME280;61032;50.782;6.818;2022-09-14T05:46:17;99447.84;;;19.02;87.94
72892;BME280;61032;50.782;6.818;2022-09-14T05:47:21;99444.66;;;19.00;88.34
72892;BME280;61032;50.782;6.818;2022-09-14T05:48:21;99452.66;;;18.98;88.28
72892;BME280;61032;50.782;6.818;2022-09-14T05:49:21;99451.50;;;18.92;88.25
72892;BME280;61032;50.782;6.818;2022-09-14T05:50:24;99450.34;;;18.90;88.65
72892;BME280;61032;50.782;6.818;2022-09-14T05:51:25;99450.31;;;18.93;88.80
72892;BME280;61032;50.782;6.818;2022-09-14T05:52:28;99454.25;;;18.96;88.71
72892;BME280;61032;50.782;6.818;2022-09-14T05:53:29;99454.22;;;18.99;88.71
72892;BME280;61032;50.782;6.818;2022-09-14T05:54:30;99458.59;;;19.00;88.34
72892;BME280;61032;50.782;6.818;2022-09-14T05:55:30;99455.00;;;19.03;88.89
72892;BME280;61032;50.782;6.818;2022-09-14T05:56:30;99461.75;;;19.06;88.40
72892;BME280;61032;50.782;6.818;2022-09-14T05:57:31;99460.94;;;19.05;88.27
72892;BME280;61032;50.782;6.818;2022-09-14T05:58:32;99460.94;;;19.05;88.36
72892;BME280;61032;50.782;6.818;2022-09-14T05:59:32;99460.13;;;19.08;88.79